Pineville, North Carolina
Current Conditions -  °F | °C
As of 10:52 PM on Saturday 25 Oct 2014 (Local Time) from KCLT Reporting Station
Clear Clear  
Wind Chill: 56°   Ceiling: Unl
Heat Index: 56°   Visibility: 10mi
Dew Point: 41°   Wind: 5mph
Humidity: 57%   Direction: 270°W
Pressure: 29.95"   Gusts: NA
Location:  35.08°N, 80.89°W
Report Text: KCLT 260252Z 27004KT 10SM CLR 13/05 A2995 RMK AO2 SLP137 T01330050 58003
Loading
Personal Weather Stations






























Interactive Weather Map
Tropical Storm Tracking
New forecast layout! Learn more

10-Day Weather Forecast

Advertisements
Track Severe Weather on mobile